San Marcos, Argentina
Current Conditions -  °F | °C
As of 1:00 PM on Saturday 25 Oct 2014 (Local Time) from SAAR Reporting Station
Broken Clouds Broken Clouds  
Wind Chill: 28°   Ceiling: 20000
Heat Index: 29°   Visibility: 6mi
Dew Point: 18°   Wind: 8mph
Humidity: 54%   Direction: 70°ENE
Pressure: 29.88"   Gusts: NA
Location:  32.63°S, 62.47°W
Report Text: SAAR 251600Z 07007KT 9999 FEW035 SCT100BKN200 28/18 Q1012
Loading
Personal Weather Stations






























Interactive Weather Map
Tropical Storm Tracking
New forecast layout! Learn more

10-Day Weather Forecast

Advertisements
Track Severe Weather on mobile